createdAt,value
2017-06-23T00:00:22.162Z,21.97
2017-06-23T00:02:55.769Z,19.00
2017-06-23T00:05:29.336Z,17.27
2017-06-23T00:08:02.904Z,18.00
2017-06-23T00:10:36.506Z,16.57
2017-06-23T00:13:10.985Z,19.97
2017-06-23T00:15:44.593Z,21.30
2017-06-23T00:18:18.181Z,29.87
2017-06-23T00:20:51.760Z,16.10
2017-06-23T00:23:25.448Z,19.27
2017-06-23T00:25:59.749Z,21.80
2017-06-23T00:28:33.228Z,20.97
2017-06-23T00:31:06.709Z,19.90
2017-06-23T00:33:40.240Z,28.60
2017-06-23T00:36:13.964Z,19.03
2017-06-23T00:38:47.664Z,18.17
2017-06-23T00:41:21.224Z,21.33
2017-06-23T00:43:55.524Z,34.00
2017-06-23T00:46:29.196Z,17.23
2017-06-23T00:49:02.921Z,20.17
2017-06-23T00:51:36.716Z,26.63
2017-06-23T00:54:11.116Z,17.77
2017-06-23T00:56:44.596Z,20.87
2017-06-23T00:59:18.153Z,19.43
2017-06-23T01:01:51.765Z,19.53
2017-06-23T01:04:25.448Z,20.20
2017-06-23T01:06:59.961Z,25.30
2017-06-23T01:09:33.640Z,16.73
2017-06-23T01:12:07.229Z,22.03
2017-06-23T01:14:40.817Z,21.10
2017-06-23T01:17:15.209Z,25.07
2017-06-23T01:19:49.616Z,18.53
2017-06-23T01:22:23.905Z,20.53
2017-06-23T01:24:57.704Z,20.00
2017-06-23T01:27:31.288Z,23.87
2017-06-23T01:30:04.972Z,26.80
2017-06-23T01:32:38.760Z,19.93
2017-06-23T01:35:12.452Z,19.13
2017-06-23T01:37:46.244Z,20.00
2017-06-23T01:40:20.030Z,28.83
2017-06-23T01:42:53.612Z,19.83
2017-06-23T01:45:27.171Z,18.57
2017-06-23T01:48:00.908Z,23.87
2017-06-23T01:50:34.444Z,20.17
2017-06-23T01:53:08.148Z,20.50
2017-06-23T01:55:41.736Z,20.63
2017-06-23T01:58:15.428Z,24.23
2017-06-23T02:00:49.008Z,20.60
2017-06-23T02:03:22.592Z,23.60
2017-06-23T02:05:56.149Z,23.33
2017-06-23T02:08:30.576Z,18.20
2017-06-23T02:11:04.157Z,19.30
2017-06-23T02:13:37.724Z,18.00
2017-06-23T02:16:11.332Z,21.93
2017-06-23T02:18:44.890Z,21.63
2017-06-23T02:21:18.489Z,25.83
2017-06-23T02:23:52.176Z,19.77
2017-06-23T02:26:25.972Z,23.07
2017-06-23T02:28:59.660Z,19.30
2017-06-23T02:31:33.926Z,24.80
2017-06-23T02:34:07.536Z,17.73
2017-06-23T02:36:40.984Z,21.87
2017-06-23T02:39:14.700Z,16.47
2017-06-23T02:41:48.292Z,23.57
2017-06-23T02:44:21.968Z,25.30
2017-06-23T02:46:55.551Z,19.77
2017-06-23T02:49:30.052Z,19.53
2017-06-23T02:52:03.631Z,22.57
2017-06-23T02:54:38.040Z,22.80
2017-06-23T02:57:11.584Z,20.23
2017-06-23T02:59:45.231Z,18.10
2017-06-23T03:02:18.704Z,21.90
2017-06-23T03:04:52.193Z,19.47
2017-06-23T03:07:25.976Z,16.33
2017-06-23T03:09:59.561Z,25.43
2017-06-23T03:12:33.148Z,19.40
2017-06-23T03:15:06.808Z,20.03
2017-06-23T03:17:40.416Z,15.83
2017-06-23T03:20:14.104Z,25.73
2017-06-23T03:22:47.681Z,23.33
2017-06-23T03:25:21.268Z,24.70
2017-06-23T03:27:54.752Z,24.63
2017-06-23T03:30:29.120Z,15.27
2017-06-23T03:33:02.713Z,17.73
2017-06-23T03:35:36.317Z,22.80
2017-06-23T03:38:09.800Z,29.87
2017-06-23T03:40:43.385Z,19.20
2017-06-23T03:43:16.988Z,17.27
2017-06-23T03:45:50.550Z,20.10
2017-06-23T03:48:24.017Z,17.50
2017-06-23T03:50:57.768Z,17.70
2017-06-23T03:53:31.512Z,21.47
2017-06-23T03:56:05.080Z,15.53
2017-06-23T03:58:38.648Z,19.53
2017-06-23T04:01:12.254Z,11.93
2017-06-23T04:03:45.933Z,16.20
2017-06-23T04:06:19.541Z,18.73
2017-06-23T04:08:53.220Z,22.73
2017-06-23T04:11:26.805Z,13.33
2017-06-23T04:14:00.389Z,15.23
2017-06-23T04:16:34.681Z,11.90
2017-06-23T04:19:08.481Z,13.47
2017-06-23T04:21:42.060Z,14.77
2017-06-23T04:24:15.637Z,11.70
2017-06-23T04:26:49.944Z,14.53
2017-06-23T04:29:23.559Z,21.20
2017-06-23T04:31:57.068Z,16.80
2017-06-23T04:34:31.516Z,14.07
2017-06-23T04:37:06.024Z,13.97
2017-06-23T04:39:39.580Z,14.40
2017-06-23T04:42:13.158Z,18.70
2017-06-23T04:44:46.777Z,12.70
2017-06-23T04:47:21.057Z,13.37
2017-06-23T04:49:54.659Z,16.53
2017-06-23T04:52:28.267Z,15.47
2017-06-23T04:55:01.804Z,17.67
2017-06-23T04:57:35.428Z,18.97
2017-06-23T05:00:08.984Z,13.60
2017-06-23T05:02:42.684Z,16.30
2017-06-23T05:05:16.336Z,36.60
2017-06-23T05:07:50.053Z,18.30
2017-06-23T05:10:23.536Z,18.40
2017-06-23T05:12:57.220Z,20.37
2017-06-23T05:15:30.808Z,21.23
2017-06-23T05:18:04.400Z,14.77
2017-06-23T05:20:38.855Z,18.17
2017-06-23T05:23:12.441Z,21.70
2017-06-23T05:25:46.024Z,19.00
2017-06-23T05:28:19.748Z,19.07
2017-06-23T05:30:53.432Z,15.60
2017-06-23T05:33:26.924Z,20.43
2017-06-23T05:36:00.485Z,15.40
2017-06-23T05:38:34.188Z,15.67
2017-06-23T05:41:07.745Z,15.27
2017-06-23T05:43:41.439Z,16.00
2017-06-23T05:46:15.045Z,14.17
2017-06-23T05:48:48.625Z,14.40
2017-06-23T05:51:22.283Z,14.07
2017-06-23T05:53:56.792Z,16.73
2017-06-23T05:56:30.464Z,18.13
2017-06-23T05:59:04.084Z,13.67
2017-06-23T06:01:38.365Z,21.97
2017-06-23T06:04:11.964Z,15.60
2017-06-23T06:06:46.481Z,13.07
2017-06-23T06:09:20.060Z,19.87
2017-06-23T06:11:53.588Z,11.87
2017-06-23T06:14:27.437Z,11.03
2017-06-23T06:17:00.996Z,11.83
2017-06-23T06:19:34.601Z,21.07
2017-06-23T06:22:08.072Z,17.10
2017-06-23T06:24:41.824Z,12.60
2017-06-23T06:27:15.352Z,9.80
2017-06-23T06:29:48.885Z,9.77
2017-06-23T06:32:22.421Z,12.40
2017-06-23T06:34:57.023Z,14.67
2017-06-23T06:37:30.594Z,8.53
2017-06-23T06:40:04.300Z,9.17
2017-06-23T06:42:37.884Z,13.40
2017-06-23T06:45:11.488Z,10.90
2017-06-23T06:47:45.871Z,20.13
2017-06-23T06:50:19.529Z,10.67
2017-06-23T06:52:53.136Z,12.97
2017-06-23T06:55:26.848Z,10.80
2017-06-23T06:58:00.405Z,9.87
2017-06-23T07:00:34.692Z,13.43
2017-06-23T07:03:08.253Z,11.30
2017-06-23T07:05:41.856Z,13.20
2017-06-23T07:08:16.152Z,9.70
2017-06-23T07:10:50.680Z,10.17
2017-06-23T07:13:24.140Z,10.90
2017-06-23T07:15:57.737Z,7.67
2017-06-23T07:18:31.272Z,8.77
2017-06-23T07:21:04.916Z,15.67
2017-06-23T07:23:38.456Z,8.60
2017-06-23T07:26:12.077Z,8.73
2017-06-23T07:28:45.868Z,7.43
2017-06-23T07:31:19.444Z,11.30
2017-06-23T07:33:53.002Z,9.20
2017-06-23T07:36:26.720Z,10.50
2017-06-23T07:39:00.405Z,11.03
2017-06-23T07:41:34.901Z,14.63
2017-06-23T07:44:08.501Z,8.27
2017-06-23T07:46:42.088Z,12.63
2017-06-23T07:49:15.616Z,21.70
2017-06-23T07:51:49.356Z,26.33
2017-06-23T07:54:23.760Z,8.93
2017-06-23T07:56:58.252Z,15.30
2017-06-23T07:59:31.960Z,13.93
2017-06-23T08:02:05.533Z,9.40
2017-06-23T08:04:39.900Z,7.77
2017-06-23T08:07:13.520Z,8.77
2017-06-23T08:09:47.240Z,9.77
2017-06-23T08:12:21.100Z,13.87
2017-06-23T08:14:54.693Z,8.87
2017-06-23T08:17:28.366Z,12.13
2017-06-23T08:20:01.949Z,16.03
2017-06-23T08:22:36.457Z,10.23
2017-06-23T08:25:10.045Z,11.97
2017-06-23T08:27:44.536Z,8.03
2017-06-23T08:30:18.229Z,13.80
2017-06-23T08:32:51.880Z,13.63
2017-06-23T08:35:25.608Z,13.00
2017-06-23T08:37:59.256Z,12.07
2017-06-23T08:40:33.648Z,9.10
2017-06-23T08:43:07.877Z,9.47
2017-06-23T08:45:41.482Z,10.70
2017-06-23T08:48:16.484Z,9.03
2017-06-23T08:50:50.176Z,11.70
2017-06-23T08:53:23.857Z,10.83
2017-06-23T08:55:57.660Z,9.00
2017-06-23T08:58:31.447Z,8.67
2017-06-23T09:01:04.929Z,10.57
2017-06-23T09:03:38.483Z,8.50
2017-06-23T09:06:12.082Z,10.23
2017-06-23T09:08:45.676Z,8.17
2017-06-23T09:11:19.356Z,18.13
2017-06-23T09:13:53.108Z,12.63
2017-06-23T09:16:26.660Z,7.80
2017-06-23T09:19:00.169Z,5.80
2017-06-23T09:21:33.797Z,10.10
2017-06-23T09:24:07.388Z,9.13
2017-06-23T09:26:40.976Z,7.57
2017-06-23T09:29:15.371Z,9.40
2017-06-23T09:31:49.009Z,6.60
2017-06-23T09:34:22.852Z,9.40
2017-06-23T09:36:56.408Z,9.87
2017-06-23T09:39:30.821Z,7.13
2017-06-23T09:42:04.296Z,7.97
2017-06-23T09:44:38.089Z,12.53
2017-06-23T09:47:12.474Z,11.60
2017-06-23T09:49:46.177Z,7.43
2017-06-23T09:52:19.884Z,7.83
2017-06-23T09:54:54.292Z,8.43
2017-06-23T09:57:27.840Z,7.60
2017-06-23T10:00:01.560Z,15.10
2017-06-23T10:02:35.957Z,6.93
2017-06-23T10:05:09.541Z,7.60
2017-06-23T10:07:43.229Z,10.00
2017-06-23T10:10:16.912Z,11.03
2017-06-23T10:12:50.501Z,8.23
2017-06-23T10:15:24.085Z,10.37
2017-06-23T10:17:57.768Z,7.50
2017-06-23T10:20:31.541Z,8.40
2017-06-23T10:23:05.145Z,8.63
2017-06-23T10:25:38.827Z,10.20
2017-06-23T10:28:12.316Z,12.23
2017-06-23T10:30:46.718Z,7.10
2017-06-23T10:33:20.273Z,12.80
2017-06-23T10:35:53.878Z,7.67
2017-06-23T10:38:27.364Z,9.87
2017-06-23T10:41:01.125Z,17.90
2017-06-23T10:43:34.944Z,10.03
2017-06-23T10:46:08.622Z,7.73
2017-06-23T10:48:42.185Z,11.33
2017-06-23T10:51:15.956Z,8.93
2017-06-23T10:53:50.465Z,8.73
2017-06-23T10:56:24.052Z,7.93
2017-06-23T10:58:57.668Z,8.00
2017-06-23T11:01:31.261Z,7.17
2017-06-23T11:04:05.605Z,9.53
2017-06-23T11:06:39.181Z,5.53
2017-06-23T11:09:12.812Z,13.13
2017-06-23T11:11:46.312Z,12.13
2017-06-23T11:14:19.977Z,18.47
2017-06-23T11:16:53.580Z,8.93
2017-06-23T11:19:28.081Z,7.43
2017-06-23T11:22:01.665Z,9.57
2017-06-23T11:24:35.240Z,9.20
2017-06-23T11:27:08.940Z,8.30
2017-06-23T11:29:42.528Z,6.70
2017-06-23T11:32:17.129Z,10.07
2017-06-23T11:34:50.683Z,15.30
2017-06-23T11:37:24.292Z,6.67
2017-06-23T11:39:57.880Z,8.07
2017-06-23T11:42:31.361Z,11.30
2017-06-23T11:45:05.828Z,4.60
2017-06-23T11:47:39.560Z,9.20
2017-06-23T11:50:13.077Z,9.47
2017-06-23T11:52:47.540Z,9.50
2017-06-23T11:55:21.124Z,6.67
2017-06-23T11:57:55.504Z,6.50
2017-06-23T12:00:28.969Z,5.90
2017-06-23T12:03:02.681Z,6.90
2017-06-23T12:05:36.381Z,8.33
2017-06-23T12:08:09.974Z,6.20
2017-06-23T12:10:43.552Z,8.53
2017-06-23T12:13:17.340Z,15.13
2017-06-23T12:15:50.905Z,6.03
2017-06-23T12:18:24.484Z,10.80
2017-06-23T12:20:58.168Z,12.87
2017-06-23T12:23:32.501Z,6.57
2017-06-23T12:26:05.972Z,6.07
2017-06-23T12:28:39.764Z,8.60
2017-06-23T12:31:13.348Z,9.63
2017-06-23T12:33:46.929Z,6.50
2017-06-23T12:36:20.464Z,12.33
2017-06-23T12:38:54.164Z,7.30
2017-06-23T12:41:27.779Z,8.47
2017-06-23T12:44:01.343Z,7.20
2017-06-23T12:46:34.828Z,6.73
2017-06-23T12:49:08.433Z,5.80
2017-06-23T12:51:42.021Z,6.60
2017-06-23T12:54:15.712Z,5.73
2017-06-23T12:56:49.389Z,9.20
2017-06-23T12:59:23.213Z,6.80
2017-06-23T13:01:57.645Z,7.57
2017-06-23T13:04:31.384Z,8.63
2017-06-23T13:07:04.927Z,7.53
2017-06-23T13:09:38.541Z,6.50
2017-06-23T13:12:12.028Z,5.63
2017-06-23T13:14:46.428Z,14.87
2017-06-23T13:17:20.013Z,7.43
2017-06-23T13:19:54.484Z,5.60
2017-06-23T13:22:28.076Z,5.90
2017-06-23T13:25:01.792Z,5.70
2017-06-23T13:27:36.292Z,10.90
2017-06-23T13:30:09.877Z,8.93
2017-06-23T13:32:43.392Z,9.93
2017-06-23T13:35:17.244Z,6.27
2017-06-23T13:37:50.825Z,7.03
2017-06-23T13:40:24.421Z,5.40
2017-06-23T13:42:58.003Z,8.00
2017-06-23T13:45:31.688Z,7.60
2017-06-23T13:48:05.136Z,10.17
2017-06-23T13:50:38.853Z,6.83
2017-06-23T13:53:12.416Z,7.13
2017-06-23T13:55:46.020Z,8.87
2017-06-23T13:58:20.392Z,8.13
2017-06-23T14:00:53.901Z,5.10
2017-06-23T14:03:27.556Z,8.07
2017-06-23T14:06:01.160Z,8.40
2017-06-23T14:08:34.916Z,6.33
2017-06-23T14:11:08.554Z,9.80
2017-06-23T14:13:42.177Z,10.80
2017-06-23T14:16:17.129Z,7.70
2017-06-23T14:18:51.424Z,7.20
2017-06-23T14:21:25.852Z,4.70
2017-06-23T14:23:59.334Z,8.90
2017-06-23T14:26:33.821Z,6.47
2017-06-23T14:29:08.312Z,9.40
2017-06-23T14:31:42.034Z,9.77
2017-06-23T14:34:15.733Z,9.43
2017-06-23T14:36:49.392Z,10.10
2017-06-23T14:39:22.937Z,11.20
2017-06-23T14:41:56.577Z,8.80
2017-06-23T14:44:30.144Z,18.60
2017-06-23T14:47:04.428Z,7.47
2017-06-23T14:49:38.075Z,14.43
2017-06-23T14:52:11.768Z,7.20
2017-06-23T14:54:45.384Z,12.57
2017-06-23T14:57:19.105Z,8.70
2017-06-23T14:59:52.712Z,12.10
2017-06-23T15:02:26.348Z,10.93
2017-06-23T15:04:59.952Z,9.70
2017-06-23T15:07:34.356Z,8.67
2017-06-23T15:10:08.000Z,4.97
2017-06-23T15:12:41.584Z,6.70
2017-06-23T15:15:16.104Z,10.57
2017-06-23T15:17:49.848Z,8.73
2017-06-23T15:20:23.392Z,10.13
2017-06-23T15:22:57.096Z,7.70
2017-06-23T15:25:30.724Z,8.13
2017-06-23T15:28:04.280Z,8.23
2017-06-23T15:30:37.944Z,8.83
2017-06-23T15:33:11.533Z,5.00
2017-06-23T15:35:45.121Z,7.67
2017-06-23T15:38:18.800Z,17.17
2017-06-23T15:40:52.449Z,10.40
2017-06-23T15:43:26.260Z,9.00
2017-06-23T15:45:59.853Z,12.60
2017-06-23T15:48:33.452Z,6.70
2017-06-23T15:51:07.026Z,13.13
2017-06-23T15:53:40.596Z,8.53
2017-06-23T15:56:14.925Z,9.20
2017-06-23T15:58:49.316Z,11.60
2017-06-23T16:01:23.100Z,5.83
2017-06-23T16:03:56.796Z,16.00
2017-06-23T16:06:30.377Z,19.57
2017-06-23T16:09:03.961Z,6.33
2017-06-23T16:11:37.520Z,5.93
2017-06-23T16:14:11.108Z,9.50
2017-06-23T16:16:44.669Z,8.30
2017-06-23T16:19:18.496Z,13.30
2017-06-23T16:21:52.080Z,18.40
2017-06-23T16:24:25.647Z,7.67
2017-06-23T16:26:59.248Z,10.20
2017-06-23T16:29:33.752Z,17.13
2017-06-23T16:32:07.420Z,13.70
2017-06-23T16:34:41.257Z,9.50
2017-06-23T16:37:14.896Z,12.03
2017-06-23T16:39:48.420Z,9.87
2017-06-23T16:42:22.089Z,13.33
2017-06-23T16:44:55.680Z,8.63
2017-06-23T16:47:30.132Z,7.97
2017-06-23T16:50:04.448Z,9.50
2017-06-23T16:52:38.000Z,8.57
2017-06-23T16:55:11.848Z,11.17
2017-06-23T16:57:45.425Z,7.80
2017-06-23T17:00:19.114Z,18.10
2017-06-23T17:02:52.680Z,7.27
2017-06-23T17:05:26.288Z,7.30
2017-06-23T17:07:59.763Z,12.13
2017-06-23T17:10:33.441Z,9.90
2017-06-23T17:13:07.656Z,8.53
2017-06-23T17:15:41.172Z,10.53
2017-06-23T17:18:14.752Z,8.63
2017-06-23T17:20:48.228Z,8.37
2017-06-23T17:23:21.833Z,9.37
2017-06-23T17:25:55.343Z,5.57
2017-06-23T17:28:28.787Z,8.77
2017-06-23T17:31:02.289Z,10.23
2017-06-23T17:33:35.753Z,10.37
2017-06-23T17:36:09.276Z,6.90
2017-06-23T17:38:42.776Z,9.30
2017-06-23T17:41:16.469Z,8.73
2017-06-23T17:43:50.072Z,8.90
2017-06-23T17:46:23.546Z,7.43
2017-06-23T17:48:57.125Z,9.30
2017-06-23T17:51:30.793Z,6.87
2017-06-23T17:54:04.304Z,8.90
2017-06-23T17:56:37.776Z,7.40
2017-06-23T17:59:11.412Z,11.20
2017-06-23T18:01:44.983Z,8.87
2017-06-23T18:04:18.568Z,7.63
2017-06-23T18:06:52.247Z,9.67
2017-06-23T18:09:25.720Z,8.27
2017-06-23T18:11:59.224Z,8.63
2017-06-23T18:14:32.809Z,7.23
2017-06-23T18:17:06.304Z,6.83
2017-06-23T18:19:39.817Z,10.83
2017-06-23T18:22:13.337Z,5.87
2017-06-23T18:24:46.848Z,11.53
2017-06-23T18:27:20.384Z,9.50
2017-06-23T18:29:53.900Z,8.47
2017-06-23T18:32:27.593Z,9.17
2017-06-23T18:35:01.213Z,8.20
2017-06-23T18:37:34.905Z,13.43
2017-06-23T18:40:08.495Z,8.90
2017-06-23T18:42:41.980Z,10.37
2017-06-23T18:45:15.572Z,4.80
2017-06-23T18:47:49.148Z,6.63
2017-06-23T18:50:22.660Z,10.93
2017-06-23T18:52:56.199Z,11.50
2017-06-23T18:55:29.708Z,7.57
2017-06-23T18:58:03.221Z,6.90
2017-06-23T19:00:36.725Z,11.50
2017-06-23T19:03:10.249Z,15.00
2017-06-23T19:05:43.756Z,13.60
2017-06-23T19:08:17.248Z,6.23
2017-06-23T19:10:50.756Z,5.20
2017-06-23T19:13:24.439Z,6.93
2017-06-23T19:15:58.041Z,16.30
2017-06-23T19:18:32.301Z,25.47
2017-06-23T19:21:05.900Z,13.83
2017-06-23T19:23:39.512Z,10.23
2017-06-23T19:26:13.108Z,10.83
2017-06-23T19:28:46.736Z,13.83
2017-06-23T19:31:20.192Z,10.03
2017-06-23T19:33:53.788Z,7.00
2017-06-23T19:36:27.273Z,4.47
2017-06-23T19:39:00.748Z,10.77
2017-06-23T19:41:34.289Z,10.97
2017-06-23T19:44:07.804Z,6.03
2017-06-23T19:46:41.312Z,6.80
2017-06-23T19:49:14.980Z,5.23
2017-06-23T19:51:48.500Z,5.90
2017-06-23T19:54:22.020Z,6.77
2017-06-23T19:56:55.477Z,9.50
2017-06-23T19:59:28.956Z,13.87
2017-06-23T20:02:02.581Z,10.53
2017-06-23T20:04:36.108Z,11.13
2017-06-23T20:07:09.613Z,8.03
2017-06-23T20:09:43.217Z,6.10
2017-06-23T20:12:16.716Z,5.23
2017-06-23T20:14:50.204Z,4.80
2017-06-23T20:17:23.676Z,5.57
2017-06-23T20:19:57.372Z,5.33
2017-06-23T20:22:30.960Z,4.83
2017-06-23T20:25:04.647Z,11.87
2017-06-23T20:27:38.245Z,7.37
2017-06-23T20:30:11.744Z,8.73
2017-06-23T20:32:45.276Z,12.90
2017-06-23T20:35:18.912Z,16.97
2017-06-23T20:37:52.503Z,7.70
2017-06-23T20:40:26.220Z,15.50
2017-06-23T20:42:59.696Z,7.90
2017-06-23T20:45:33.293Z,10.00
2017-06-23T20:48:06.748Z,19.17
2017-06-23T20:50:40.264Z,14.30
2017-06-23T20:53:13.853Z,9.13
2017-06-23T20:55:47.536Z,16.63
2017-06-23T20:58:20.992Z,16.47
2017-06-23T21:00:54.533Z,18.57
2017-06-23T21:03:28.019Z,26.40
2017-06-23T21:06:01.557Z,11.73
2017-06-23T21:08:35.396Z,9.50
2017-06-23T21:11:09.025Z,6.90
2017-06-23T21:13:42.556Z,13.43
2017-06-23T21:16:16.048Z,5.70
2017-06-23T21:18:49.559Z,4.27
2017-06-23T21:21:23.277Z,4.80
2017-06-23T21:23:56.740Z,7.30
2017-06-23T21:26:30.444Z,6.40
2017-06-23T21:29:04.124Z,5.80
2017-06-23T21:31:37.820Z,9.23
2017-06-23T21:34:11.279Z,4.30
2017-06-23T21:36:44.768Z,7.50
2017-06-23T21:39:18.245Z,3.77
2017-06-23T21:41:52.784Z,3.33
2017-06-23T21:44:26.399Z,6.17
2017-06-23T21:46:59.872Z,5.23
2017-06-23T21:49:33.385Z,3.97
2017-06-23T21:52:06.888Z,5.27
2017-06-23T21:54:40.336Z,3.90
2017-06-23T21:57:13.808Z,6.03
2017-06-23T21:59:47.315Z,8.37
2017-06-23T22:02:20.877Z,4.40
2017-06-23T22:04:54.352Z,7.43
2017-06-23T22:07:28.042Z,5.47
2017-06-23T22:10:01.657Z,4.13
2017-06-23T22:12:35.148Z,5.60
2017-06-23T22:15:08.745Z,6.00
2017-06-23T22:17:42.376Z,7.27
2017-06-23T22:20:15.944Z,4.30
2017-06-23T22:22:49.625Z,7.40
2017-06-23T22:25:23.228Z,6.93
2017-06-23T22:27:56.920Z,4.70
2017-06-23T22:30:30.384Z,4.90
2017-06-23T22:33:03.889Z,3.77
2017-06-23T22:35:37.397Z,4.67
2017-06-23T22:38:10.868Z,8.03
2017-06-23T22:40:44.523Z,5.70
2017-06-23T22:43:18.029Z,7.40
2017-06-23T22:45:51.540Z,4.10
2017-06-23T22:48:25.007Z,7.67
2017-06-23T22:50:58.545Z,5.13
2017-06-23T22:53:32.012Z,4.13
2017-06-23T22:56:05.672Z,4.50
2017-06-23T22:58:39.353Z,5.60
2017-06-23T23:01:12.952Z,4.30
2017-06-23T23:03:46.435Z,4.90
2017-06-23T23:06:19.909Z,4.30
2017-06-23T23:08:53.634Z,4.10
2017-06-23T23:11:27.117Z,4.50
2017-06-23T23:14:00.616Z,3.10
2017-06-23T23:16:34.276Z,7.23
2017-06-23T23:19:07.768Z,4.90
2017-06-23T23:21:41.437Z,4.30
2017-06-23T23:24:14.928Z,6.30
2017-06-23T23:26:48.369Z,4.27
2017-06-23T23:29:21.856Z,5.83
2017-06-23T23:31:55.450Z,4.13
2017-06-23T23:34:29.108Z,5.67
2017-06-23T23:37:02.580Z,4.03
2017-06-23T23:39:36.265Z,11.93
2017-06-23T23:42:09.708Z,4.53
2017-06-23T23:44:43.319Z,6.50
2017-06-23T23:47:16.919Z,3.87
2017-06-23T23:49:50.605Z,6.13
2017-06-23T23:52:24.083Z,5.47
2017-06-23T23:54:57.557Z,2.53
2017-06-23T23:57:31.008Z,3.00
